Time;durP1;ratioP1;P1;durP2;ratioP2;P2;SDS_P1;SDS_P2;PMS_P1;PMS_P2;Temp;Humidity;BMP_temperature;BMP_pressure;BME280_temperature;BME280_humidity;BME280_pressure;Samples;Min_cycle;Max_cycle;Signal;HPM_P1;HPM_P2
2024/01/10 00:01:18;;;;;;;13.52;7.50;;;9.60;87.60;;;;;;5091348;28;20186;-44
2024/01/10 00:03:44;;;;;;;12.60;8.15;;;9.60;87.70;;;;;;5091173;28;20026;-44
2024/01/10 00:06:11;;;;;;;12.07;7.80;;;9.60;87.70;;;;;;5091222;28;20536;-44
2024/01/10 00:08:37;;;;;;;13.02;8.18;;;9.60;88.50;;;;;;5091108;28;20028;-44
2024/01/10 00:11:03;;;;;;;12.90;8.05;;;9.50;87.80;;;;;;5091266;28;20035;-44
2024/01/10 00:13:29;;;;;;;12.82;7.60;;;9.50;87.90;;;;;;5090990;28;20432;-44
2024/01/10 00:15:55;;;;;;;12.07;7.82;;;9.50;87.90;;;;;;5091060;28;20562;-44
2024/01/10 00:18:21;;;;;;;12.70;7.55;;;9.50;88.00;;;;;;5091105;28;20032;-43
2024/01/10 00:20:47;;;;;;;11.27;7.80;;;9.50;88.00;;;;;;5091077;28;20073;-44
2024/01/10 00:23:13;;;;;;;12.95;7.68;;;9.50;88.10;;;;;;5091017;28;20020;-44
2024/01/10 00:25:39;;;;;;;12.25;7.93;;;9.50;88.10;;;;;;5090973;28;20078;-44
2024/01/10 00:28:05;;;;;;;14.20;8.25;;;9.40;88.10;;;;;;5090725;28;20020;-44
2024/01/10 00:30:31;;;;;;;14.00;8.10;;;9.40;88.20;;;;;;5091178;28;20121;-44
2024/01/10 00:32:56;;;;;;;13.30;8.20;;;9.40;88.20;;;;;;5090852;28;20050;-45
2024/01/10 00:35:22;;;;;;;14.65;8.05;;;9.40;88.30;;;;;;5091058;28;20123;-45
2024/01/10 00:37:48;;;;;;;13.13;8.13;;;9.40;88.30;;;;;;5090903;28;20397;-45
2024/01/10 00:40:13;;;;;;;15.70;7.63;;;9.40;88.40;;;;;;5091670;28;20035;-45
2024/01/10 00:42:39;;;;;;;13.60;8.32;;;9.40;88.50;;;;;;5092360;28;20016;-44
2024/01/10 00:45:05;;;;;;;12.38;7.93;;;9.40;88.50;;;;;;5094642;28;20024;-44
2024/01/10 00:47:30;;;;;;;12.43;6.82;;;9.30;88.50;;;;;;5094469;28;20106;-44
2024/01/10 00:49:56;;;;;;;12.32;7.70;;;9.30;88.60;;;;;;5094477;28;20035;-44
2024/01/10 00:52:22;;;;;;;13.90;8.15;;;9.30;88.70;;;;;;5094566;28;20028;-44
2024/01/10 00:54:47;;;;;;;13.98;8.32;;;9.30;88.60;;;;;;5094436;28;20540;-45
2024/01/10 00:57:14;;;;;;;11.38;7.25;;;9.30;88.70;;;;;;5094105;28;20035;-44
2024/01/10 00:59:40;;;;;;;12.52;7.80;;;9.30;88.80;;;;;;5094278;28;20046;-44
2024/01/10 01:02:05;;;;;;;14.27;7.68;;;9.30;88.80;;;;;;5094192;28;20032;-44
2024/01/10 01:04:31;;;;;;;10.82;6.97;;;9.30;88.90;;;;;;5094307;28;20016;-44
2024/01/10 01:06:57;;;;;;;11.68;7.28;;;9.20;88.90;;;;;;5094167;28;20047;-44
2024/01/10 01:09:22;;;;;;;10.57;7.00;;;9.20;88.90;;;;;;5094087;28;20386;-44
2024/01/10 01:11:48;;;;;;;12.13;7.65;;;9.20;88.90;;;;;;5092856;28;20496;-44
2024/01/10 01:14:13;;;;;;;12.38;7.47;;;9.20;88.90;;;;;;5094090;28;20063;-44
2024/01/10 01:16:39;;;;;;;13.77;7.57;;;9.20;89.00;;;;;;5094081;28;20024;-44
2024/01/10 01:19:05;;;;;;;11.15;7.25;;;9.20;89.10;;;;;;5093952;28;20481;-44
2024/01/10 01:21:30;;;;;;;12.57;7.63;;;9.20;89.10;;;;;;5093906;28;20406;-45
2024/01/10 01:23:56;;;;;;;11.32;7.15;;;9.20;89.10;;;;;;5093659;28;20044;-44
2024/01/10 01:26:22;;;;;;;12.57;7.22;;;9.20;89.10;;;;;;5093691;28;20032;-44
2024/01/10 01:28:47;;;;;;;11.80;7.40;;;9.10;89.10;;;;;;5093693;28;20027;-44
2024/01/10 01:31:13;;;;;;;12.82;7.50;;;9.10;89.20;;;;;;5093870;28;20470;-44
2024/01/10 01:33:39;;;;;;;11.15;6.93;;;9.10;89.20;;;;;;5093596;28;20024;-44
2024/01/10 01:36:06;;;;;;;10.70;7.15;;;9.10;90.00;;;;;;5093557;28;20024;-44
2024/01/10 01:38:32;;;;;;;10.80;7.18;;;9.10;89.30;;;;;;5093556;28;20024;-44
2024/01/10 01:40:57;;;;;;;10.70;7.07;;;9.10;89.30;;;;;;5093925;28;20038;-44
2024/01/10 01:43:26;;;;;;;10.38;6.82;;;9.10;89.40;;;;;;5093454;28;20441;-44
2024/01/10 01:45:54;;;;;;;10.93;7.30;;;9.10;89.40;;;;;;5093426;28;20051;-44
2024/01/10 01:48:20;;;;;;;10.85;6.55;;;9.10;89.50;;;;;;5093349;28;20028;-44
2024/01/10 01:50:48;;;;;;;10.65;6.45;;;9.10;89.50;;;;;;5093412;28;20063;-44
2024/01/10 01:53:15;;;;;;;12.35;6.97;;;9.10;89.60;;;;;;5093116;28;20028;-44
2024/01/10 01:55:43;;;;;;;12.57;6.68;;;9.10;89.60;;;;;;5092633;28;20497;-44
2024/01/10 01:58:09;;;;;;;13.50;7.60;;;9.10;89.60;;;;;;5093020;28;20108;-44
2024/01/10 02:00:36;;;;;;;11.48;7.15;;;9.10;89.70;;;;;;5093109;28;20561;-44
2024/01/10 02:03:03;;;;;;;11.63;6.97;;;9.00;89.70;;;;;;5092752;28;20040;-44
2024/01/10 02:05:28;;;;;;;12.88;7.25;;;9.10;89.80;;;;;;5093020;28;20042;-44
2024/01/10 02:07:55;;;;;;;11.40;7.22;;;9.00;89.80;;;;;;5093212;28;20020;-44
2024/01/10 02:10:21;;;;;;;11.32;6.60;;;9.00;89.80;;;;;;5093912;28;20043;-45
2024/01/10 02:12:47;;;;;;;12.30;7.28;;;9.10;89.80;;;;;;5092880;28;20036;-44
2024/01/10 02:15:14;;;;;;;11.95;6.90;;;9.00;89.80;;;;;;5092676;28;20035;-44
2024/01/10 02:17:40;;;;;;;13.70;7.30;;;9.00;89.80;;;;;;5092648;28;20028;-41
2024/01/10 02:20:09;;;;;;;12.45;7.53;;;9.00;89.80;;;;;;5092806;28;20024;-44
2024/01/10 02:22:35;;;;;;;13.68;7.10;;;9.00;89.80;;;;;;5092779;28;20082;-43
2024/01/10 02:25:00;;;;;;;13.13;7.43;;;9.10;90.00;;;;;;5092665;28;20070;-44
2024/01/10 02:27:26;;;;;;;12.15;6.85;;;9.00;89.80;;;;;;5092601;28;20032;-44
2024/01/10 02:29:54;;;;;;;12.43;7.25;;;9.00;89.90;;;;;;5092435;28;20028;-44
2024/01/10 02:32:19;;;;;;;13.25;7.03;;;9.00;90.00;;;;;;5093330;28;20039;-45
2024/01/10 02:34:45;;;;;;;12.35;7.22;;;9.00;90.00;;;;;;5092710;28;20237;-44
2024/01/10 02:37:11;;;;;;;12.85;7.70;;;9.00;90.00;;;;;;5092328;28;20024;-43
2024/01/10 02:39:36;;;;;;;12.00;7.32;;;9.00;90.00;;;;;;5092834;28;20016;-44
2024/01/10 02:42:02;;;;;;;12.68;6.82;;;9.00;90.00;;;;;;5091290;28;20107;-44
2024/01/10 02:44:28;;;;;;;14.32;7.30;;;9.00;90.00;;;;;;5092959;28;21011;-44
2024/01/10 02:46:53;;;;;;;11.05;7.25;;;9.00;90.00;;;;;;5093629;28;20103;-44
2024/01/10 02:49:19;;;;;;;13.23;7.57;;;9.00;90.00;;;;;;5092226;28;20024;-44
2024/01/10 02:51:45;;;;;;;12.38;7.05;;;9.00;90.00;;;;;;5092279;28;20397;-44
2024/01/10 02:54:11;;;;;;;11.85;6.80;;;9.00;90.00;;;;;;5092323;28;20057;-44
2024/01/10 02:56:36;;;;;;;14.13;7.45;;;8.90;90.00;;;;;;5091994;28;20024;-44
2024/01/10 02:59:02;;;;;;;15.57;7.40;;;8.90;90.00;;;;;;5092709;28;20020;-44
2024/01/10 03:01:28;;;;;;;12.95;7.70;;;8.90;90.00;;;;;;5092210;28;20076;-43
2024/01/10 03:03:53;;;;;;;11.40;6.63;;;8.90;90.00;;;;;;5091944;28;20028;-44
2024/01/10 03:06:19;;;;;;;13.43;7.45;;;8.90;90.10;;;;;;5091551;28;20098;-44
2024/01/10 03:08:45;;;;;;;14.48;7.75;;;8.90;90.10;;;;;;5092319;28;20032;-44
2024/01/10 03:11:10;;;;;;;11.90;6.75;;;8.90;90.10;;;;;;5091833;28;20543;-44
2024/01/10 03:13:37;;;;;;;10.93;6.88;;;8.90;90.10;;;;;;5091639;28;20043;-44
2024/01/10 03:16:03;;;;;;;11.48;7.13;;;8.90;90.10;;;;;;5091638;28;20024;-44
2024/01/10 03:18:29;;;;;;;11.93;6.82;;;8.90;90.10;;;;;;5091783;28;20059;-44
2024/01/10 03:20:55;;;;;;;12.85;7.00;;;8.90;90.10;;;;;;5091724;28;20158;-43
2024/01/10 03:23:21;;;;;;;11.68;7.43;;;8.90;90.10;;;;;;5091503;28;20099;-44
2024/01/10 03:25:48;;;;;;;10.38;6.32;;;8.90;90.10;;;;;;5091648;28;20435;-44
2024/01/10 03:28:17;;;;;;;11.05;7.22;;;8.90;90.10;;;;;;5091374;28;20074;-44
2024/01/10 03:30:44;;;;;;;12.32;6.90;;;8.90;90.10;;;;;;5091592;28;20012;-44
2024/01/10 03:33:09;;;;;;;11.43;7.20;;;8.90;90.20;;;;;;5091485;28;20024;-44
2024/01/10 03:35:35;;;;;;;11.20;7.10;;;8.90;90.20;;;;;;5091368;28;20024;-44
2024/01/10 03:38:00;;;;;;;10.93;7.07;;;8.90;90.20;;;;;;5091290;28;20042;-44
2024/01/10 03:40:26;;;;;;;11.38;6.80;;;8.90;90.20;;;;;;5091392;28;20107;-45
2024/01/10 03:42:52;;;;;;;11.10;6.80;;;8.90;90.50;;;;;;5091253;28;20024;-44
2024/01/10 03:45:20;;;;;;;12.63;6.80;;;8.90;90.50;;;;;;5091351;28;20157;-44
2024/01/10 03:47:49;;;;;;;13.98;7.50;;;8.90;90.50;;;;;;5092235;28;20107;-44
2024/01/10 03:50:16;;;;;;;13.75;7.30;;;8.90;90.20;;;;;;5091271;28;20028;-44
2024/01/10 03:52:43;;;;;;;12.77;7.10;;;8.80;90.20;;;;;;5091289;28;20020;-43
2024/01/10 03:55:09;;;;;;;11.80;6.97;;;8.80;90.20;;;;;;5091198;28;20056;-43
2024/01/10 03:57:34;;;;;;;11.43;6.90;;;8.80;90.20;;;;;;5091099;28;20097;-45
2024/01/10 04:00:00;;;;;;;10.02;7.15;;;8.80;90.20;;;;;;5091218;28;20024;-43
2024/01/10 04:02:27;;;;;;;12.57;7.47;;;8.80;90.20;;;;;;5091179;28;20480;-44
2024/01/10 04:04:53;;;;;;;11.88;7.10;;;8.80;90.20;;;;;;5091145;28;20019;-44
2024/01/10 04:07:19;;;;;;;10.23;6.65;;;8.80;90.20;;;;;;5091266;28;20032;-44
2024/01/10 04:09:45;;;;;;;11.25;7.00;;;8.80;90.20;;;;;;5090973;28;20031;-44
2024/01/10 04:12:10;;;;;;;9.48;6.50;;;8.80;90.20;;;;;;5091047;28;20031;-43
2024/01/10 04:14:36;;;;;;;13.32;7.78;;;8.80;90.30;;;;;;5091142;28;20389;-44
2024/01/10 04:17:04;;;;;;;10.48;6.45;;;8.80;90.30;;;;;;5091733;28;20028;-44
2024/01/10 04:19:30;;;;;;;12.70;7.50;;;8.80;90.30;;;;;;5095086;28;20443;-44
2024/01/10 04:21:55;;;;;;;11.23;6.95;;;8.80;90.30;;;;;;5096113;28;20024;-43
2024/01/10 04:24:21;;;;;;;12.38;7.20;;;8.80;90.30;;;;;;5095159;28;20031;-44
2024/01/10 04:26:47;;;;;;;12.50;7.38;;;8.80;90.30;;;;;;5093828;28;20024;-43
2024/01/10 04:29:12;;;;;;;11.30;6.80;;;8.80;90.40;;;;;;5095352;28;20484;-44
2024/01/10 04:31:38;;;;;;;11.25;6.95;;;8.80;90.40;;;;;;5095198;28;20080;-44
2024/01/10 04:34:04;;;;;;;11.57;6.72;;;8.80;90.40;;;;;;5094916;28;20486;-43
2024/01/10 04:36:29;;;;;;;11.20;6.75;;;8.80;90.40;;;;;;5095166;28;20024;-43
2024/01/10 04:38:55;;;;;;;12.90;7.18;;;8.80;90.40;;;;;;5094574;28;20095;-45
2024/01/10 04:41:21;;;;;;;12.82;7.68;;;8.80;90.40;;;;;;5094734;28;20486;-44
2024/01/10 04:43:46;;;;;;;10.27;6.28;;;8.80;90.40;;;;;;5094779;28;20515;-44
2024/01/10 04:46:12;;;;;;;11.45;6.60;;;8.80;90.40;;;;;;5094770;28;20031;-44
2024/01/10 04:48:37;;;;;;;10.35;6.65;;;8.80;90.40;;;;;;5093714;28;20062;-44
2024/01/10 04:51:03;;;;;;;12.13;6.88;;;8.70;90.40;;;;;;5094552;28;20133;-44
2024/01/10 04:53:29;;;;;;;11.77;6.60;;;8.70;90.40;;;;;;5094497;28;20032;-45
2024/01/10 04:55:54;;;;;;;12.43;6.35;;;8.70;90.40;;;;;;5094458;28;20081;-46
2024/01/10 04:58:20;;;;;;;10.40;6.47;;;8.70;90.40;;;;;;5094366;28;20500;-44
2024/01/10 05:00:46;;;;;;;11.35;6.82;;;8.70;90.40;;;;;;5094361;28;20035;-44
2024/01/10 05:03:11;;;;;;;10.65;7.13;;;8.70;90.40;;;;;;5094198;28;20027;-44
2024/01/10 05:05:37;;;;;;;12.30;7.38;;;8.70;90.40;;;;;;5094350;28;20058;-44
2024/01/10 05:08:03;;;;;;;12.50;7.25;;;8.70;90.40;;;;;;5093982;28;20103;-43
2024/01/10 05:10:29;;;;;;;9.98;6.68;;;8.70;90.40;;;;;;5094386;28;20042;-44
2024/01/10 05:12:54;;;;;;;10.13;6.47;;;8.70;90.50;;;;;;5094061;28;20066;-44
2024/01/10 05:15:20;;;;;;;11.27;6.85;;;8.70;90.50;;;;;;5094074;28;20498;-44
2024/01/10 05:17:45;;;;;;;11.05;6.88;;;8.70;90.50;;;;;;5093969;28;20031;-44
2024/01/10 05:20:11;;;;;;;12.45;6.85;;;8.70;90.50;;;;;;5093883;28;20094;-44
2024/01/10 05:22:37;;;;;;;12.30;7.45;;;8.70;90.50;;;;;;5093733;28;20020;-43
2024/01/10 05:25:04;;;;;;;11.80;7.10;;;8.70;90.50;;;;;;5093786;28;20039;-44
2024/01/10 05:27:29;;;;;;;10.43;6.78;;;8.70;90.50;;;;;;5093744;28;20073;-44
2024/01/10 05:29:56;;;;;;;11.05;7.32;;;8.70;90.50;;;;;;5093463;28;20514;-44
2024/01/10 05:32:22;;;;;;;14.25;7.97;;;8.70;90.40;;;;;;5094340;28;20063;-44
2024/01/10 05:34:48;;;;;;;10.38;6.80;;;8.70;90.40;;;;;;5094533;28;20024;-44
2024/01/10 05:37:13;;;;;;;10.27;6.95;;;8.70;90.40;;;;;;5093471;28;20039;-45
2024/01/10 05:39:39;;;;;;;12.07;6.43;;;8.70;90.50;;;;;;5093578;28;20474;-44
2024/01/10 05:42:05;;;;;;;13.60;7.45;;;8.70;90.40;;;;;;5093516;28;20024;-44
2024/01/10 05:44:30;;;;;;;11.35;6.35;;;8.70;90.40;;;;;;5094136;28;20016;-44
2024/01/10 05:46:59;;;;;;;10.90;6.95;;;8.70;90.40;;;;;;5093393;28;20024;-43
2024/01/10 05:49:25;;;;;;;9.77;6.82;;;8.70;90.50;;;;;;5094813;28;20024;-44
2024/01/10 05:51:50;;;;;;;12.00;7.07;;;8.70;90.40;;;;;;5093187;28;20031;-44
2024/01/10 05:54:18;;;;;;;10.10;6.53;;;8.70;90.50;;;;;;5093300;28;20043;-44
2024/01/10 05:56:43;;;;;;;11.88;7.38;;;8.70;90.50;;;;;;5093204;28;20020;-43
2024/01/10 05:59:11;;;;;;;9.73;6.57;;;8.70;90.50;;;;;;5093103;28;20031;-44
2024/01/10 06:01:38;;;;;;;10.43;6.88;;;8.70;90.50;;;;;;5093710;28;20020;-44
2024/01/10 06:04:04;;;;;;;11.90;7.40;;;8.70;90.50;;;;;;5093459;28;20043;-44
2024/01/10 06:06:30;;;;;;;12.35;7.00;;;8.70;90.50;;;;;;5092898;28;20425;-44
2024/01/10 06:08:56;;;;;;;13.38;7.32;;;8.70;90.50;;;;;;5093166;28;20042;-44
2024/01/10 06:11:21;;;;;;;11.73;7.07;;;8.80;90.50;;;;;;5093268;28;20020;-44
2024/01/10 06:13:47;;;;;;;15.43;8.02;;;8.80;90.50;;;;;;5093003;28;20031;-44
2024/01/10 06:16:13;;;;;;;12.65;7.03;;;8.90;90.40;;;;;;5093167;28;20034;-44
2024/01/10 06:18:39;;;;;;;12.10;7.45;;;8.90;90.40;;;;;;5092788;28;20462;-44
2024/01/10 06:21:05;;;;;;;13.07;7.88;;;9.00;90.30;;;;;;5092744;28;20486;-43
2024/01/10 06:23:30;;;;;;;10.60;6.72;;;9.00;90.30;;;;;;5092613;28;20016;-44
2024/01/10 06:25:56;;;;;;;10.63;6.80;;;9.10;90.20;;;;;;5093001;28;20469;-44
2024/01/10 06:28:23;;;;;;;10.25;6.22;;;9.10;90.20;;;;;;5092993;28;20401;-44
2024/01/10 06:30:49;;;;;;;10.63;7.07;;;9.20;90.10;;;;;;5092624;28;20022;-44
2024/01/10 06:33:15;;;;;;;11.85;7.07;;;9.30;90.00;;;;;;5092470;28;20051;-44
2024/01/10 06:35:43;;;;;;;10.85;6.30;;;9.30;90.00;;;;;;5092666;28;20032;-44
2024/01/10 06:38:09;;;;;;;11.38;7.18;;;9.40;89.90;;;;;;5093725;28;20513;-44
2024/01/10 06:40:36;;;;;;;12.32;7.30;;;9.40;89.60;;;;;;5092331;28;20467;-44
2024/01/10 06:43:02;;;;;;;12.63;7.57;;;9.50;89.40;;;;;;5092410;28;20027;-44
2024/01/10 06:45:28;;;;;;;15.98;8.55;;;9.50;89.20;;;;;;5092390;28;20084;-43
2024/01/10 06:47:54;;;;;;;15.52;8.18;;;9.60;89.00;;;;;;5092338;28;20023;-44
2024/01/10 06:50:21;;;;;;;16.00;8.40;;;9.60;88.70;;;;;;5093079;28;20029;-44
2024/01/10 06:52:48;;;;;;;12.10;7.50;;;9.70;88.50;;;;;;5092094;28;20031;-44
2024/01/10 06:55:13;;;;;;;13.32;8.52;;;9.70;88.40;;;;;;5092141;28;20024;-44
2024/01/10 06:57:39;;;;;;;11.57;7.68;;;9.70;89.00;;;;;;5092383;28;20385;-44
2024/01/10 07:00:10;;;;;;;11.63;7.38;;;9.70;88.10;;;;;;5092383;28;20020;-44
2024/01/10 07:02:39;;;;;;;12.98;8.38;;;9.70;88.80;;;;;;5092359;28;20085;-44
2024/01/10 07:05:09;;;;;;;13.75;8.30;;;9.70;88.00;;;;;;5091970;28;20424;-44
2024/01/10 07:07:35;;;;;;;13.43;8.07;;;9.70;87.90;;;;;;5092104;28;20095;-44
2024/01/10 07:10:04;;;;;;;11.95;7.82;;;9.70;87.90;;;;;;5092126;28;20059;-43
2024/01/10 07:12:31;;;;;;;13.73;8.05;;;9.70;87.90;;;;;;5091738;28;20020;-44
2024/01/10 07:14:57;;;;;;;12.70;7.68;;;9.70;87.90;;;;;;5091758;28;20024;-44
2024/01/10 07:17:22;;;;;;;14.27;7.82;;;9.70;88.00;;;;;;5091670;28;20034;-44
2024/01/10 07:19:48;;;;;;;14.90;8.73;;;9.60;88.00;;;;;;5091982;28;20020;-44
2024/01/10 07:22:14;;;;;;;14.10;7.82;;;9.60;88.00;;;;;;5091594;28;20044;-44
2024/01/10 07:24:40;;;;;;;11.35;7.55;;;9.60;88.10;;;;;;5091962;28;20039;-44
2024/01/10 07:27:07;;;;;;;13.85;7.53;;;9.50;88.00;;;;;;5091634;28;20024;-43
2024/01/10 07:29:34;;;;;;;14.80;8.07;;;9.50;88.10;;;;;;5091447;28;20059;-43
2024/01/10 07:31:59;;;;;;;14.40;8.13;;;9.50;88.10;;;;;;5091484;28;20031;-44
2024/01/10 07:34:25;;;;;;;11.25;7.28;;;9.50;88.20;;;;;;5091553;28;20399;-44
2024/01/10 07:36:51;;;;;;;10.25;7.20;;;9.40;88.20;;;;;;5092612;28;20067;-42
2024/01/10 07:39:18;;;;;;;12.48;7.47;;;9.40;88.30;;;;;;5091970;28;20474;-44
2024/01/10 07:41:44;;;;;;;12.60;7.90;;;9.50;88.40;;;;;;5091545;28;20020;-44
2024/01/10 07:44:10;;;;;;;15.40;7.82;;;9.50;88.50;;;;;;5091931;28;20027;-44
2024/01/10 07:46:38;;;;;;;12.40;7.15;;;9.40;88.50;;;;;;5091274;28;20032;-44
2024/01/10 07:49:04;;;;;;;11.88;7.28;;;9.40;88.50;;;;;;5091329;28;20046;-43
2024/01/10 07:51:30;;;;;;;11.07;7.35;;;9.40;88.50;;;;;;5090896;28;20028;-42
2024/01/10 07:53:56;;;;;;;12.70;7.35;;;9.50;88.50;;;;;;5091374;28;20035;-44
2024/01/10 07:56:22;;;;;;;12.95;7.53;;;9.50;88.40;;;;;;5091105;28;20028;-44
2024/01/10 07:58:48;;;;;;;12.70;7.75;;;9.50;88.40;;;;;;5091073;28;20118;-44
2024/01/10 08:01:15;;;;;;;12.85;8.20;;;9.50;88.30;;;;;;5092390;28;20161;-44
2024/01/10 08:03:41;;;;;;;12.65;7.63;;;9.60;88.20;;;;;;5091399;28;20031;-44
2024/01/10 08:06:07;;;;;;;11.65;7.00;;;9.60;88.10;;;;;;5091725;28;20024;-44
2024/01/10 08:08:32;;;;;;;12.65;7.30;;;9.70;88.10;;;;;;5091146;28;20112;-44
2024/01/10 08:10:58;;;;;;;12.02;7.38;;;9.70;88.00;;;;;;5091493;28;20024;-44
2024/01/10 08:13:24;;;;;;;11.77;7.35;;;9.80;87.90;;;;;;5091411;28;20023;-44
2024/01/10 08:15:50;;;;;;;11.98;7.35;;;9.80;87.90;;;;;;5091637;28;20028;-45
2024/01/10 08:18:16;;;;;;;11.73;7.32;;;9.90;87.80;;;;;;5091033;28;20023;-44
2024/01/10 08:20:42;;;;;;;13.65;7.43;;;9.90;87.70;;;;;;5091104;28;20016;-44
2024/01/10 08:23:08;;;;;;;11.73;6.90;;;10.00;87.70;;;;;;5091257;28;20872;-43
2024/01/10 08:25:33;;;;;;;13.77;8.90;;;10.00;87.50;;;;;;5091592;28;20039;-44
2024/01/10 08:27:59;;;;;;;14.15;8.80;;;10.10;88.60;;;;;;5091586;28;20028;-44
2024/01/10 08:30:25;;;;;;;15.38;8.48;;;10.20;88.70;;;;;;5091242;28;20062;-44
2024/01/10 08:32:50;;;;;;;14.48;8.57;;;10.70;88.20;;;;;;5090928;28;20092;-44
2024/01/10 08:35:16;;;;;;;13.02;8.70;;;11.20;87.10;;;;;;5090904;28;20062;-44
2024/01/10 08:37:46;;;;;;;15.18;9.13;;;11.80;85.00;;;;;;5090790;28;20498;-44
2024/01/10 08:40:14;;;;;;;16.05;8.85;;;12.10;83.10;;;;;;5090827;28;20478;-44
2024/01/10 08:42:40;;;;;;;14.18;8.00;;;12.20;82.20;;;;;;5090652;28;20500;-43
2024/01/10 08:45:09;;;;;;;13.60;8.52;;;12.30;82.70;;;;;;5091209;28;20024;-44
2024/01/10 08:47:35;;;;;;;14.00;8.70;;;12.30;81.90;;;;;;5091098;28;20020;-44
2024/01/10 08:50:04;;;;;;;11.93;7.68;;;12.30;81.90;;;;;;5091426;28;20032;-43
2024/01/10 08:52:31;;;;;;;13.98;7.47;;;12.30;81.90;;;;;;5090767;28;20024;-43
2024/01/10 08:54:56;;;;;;;11.27;7.60;;;12.40;81.80;;;;;;5091412;28;20089;-45
2024/01/10 08:57:22;;;;;;;11.88;7.55;;;12.40;81.70;;;;;;5090863;28;20024;-44
2024/01/10 08:59:48;;;;;;;10.82;7.35;;;12.40;81.80;;;;;;5090635;28;20067;-44
2024/01/10 09:02:14;;;;;;;13.73;7.82;;;12.40;81.80;;;;;;5090662;28;20020;-45
2024/01/10 09:04:39;;;;;;;12.35;7.68;;;12.40;81.80;;;;;;5092484;28;20031;-44
2024/01/10 09:07:07;;;;;;;12.00;6.53;;;12.50;81.90;;;;;;5094605;28;20024;-44
2024/01/10 09:09:32;;;;;;;11.10;7.50;;;12.50;81.80;;;;;;5094316;28;20035;-44
2024/01/10 09:11:58;;;;;;;11.52;7.35;;;12.50;81.80;;;;;;5094116;28;20024;-44
2024/01/10 09:14:23;;;;;;;13.30;7.38;;;12.50;81.80;;;;;;5094096;28;20501;-44
2024/01/10 09:16:49;;;;;;;10.43;7.03;;;12.50;81.80;;;;;;5094198;28;20028;-45
2024/01/10 09:19:15;;;;;;;13.75;7.90;;;12.50;81.80;;;;;;5093938;28;20065;-45
2024/01/10 09:21:40;;;;;;;12.32;7.63;;;12.60;81.80;;;;;;5094418;28;20522;-44
2024/01/10 09:24:08;;;;;;;12.18;6.93;;;12.60;81.80;;;;;;5093826;28;20058;-44
2024/01/10 09:26:34;;;;;;;11.82;7.72;;;12.70;81.80;;;;;;5093786;28;20032;-43
2024/01/10 09:29:00;;;;;;;11.48;7.45;;;12.70;81.70;;;;;;5094145;28;20039;-45
2024/01/10 09:31:25;;;;;;;11.30;6.85;;;12.70;81.60;;;;;;5094775;28;20106;-44
2024/01/10 09:33:51;;;;;;;11.02;7.10;;;12.80;81.60;;;;;;5093667;28;20030;-44
2024/01/10 09:36:17;;;;;;;12.82;7.50;;;12.90;81.60;;;;;;5093651;28;20158;-43
2024/01/10 09:38:42;;;;;;;12.48;7.40;;;12.90;81.50;;;;;;5093790;28;20016;-44
2024/01/10 09:41:10;;;;;;;11.30;6.80;;;12.90;81.40;;;;;;5093704;28;20028;-45
2024/01/10 09:43:36;;;;;;;11.73;7.22;;;13.00;81.40;;;;;;5093839;28;20028;-44
2024/01/10 09:46:02;;;;;;;12.13;7.22;;;13.00;81.40;;;;;;5093460;28;20020;-44
2024/01/10 09:48:29;;;;;;;10.52;7.28;;;13.10;81.30;;;;;;5093250;28;20482;-44
2024/01/10 09:50:56;;;;;;;10.27;6.95;;;13.10;81.20;;;;;;5093486;28;20085;-43
2024/01/10 09:53:31;;;;;;;10.10;6.93;;;13.20;81.10;;;;;;5093230;28;20387;-44
2024/01/10 09:55:59;;;;;;;10.40;7.35;;;13.30;81.10;;;;;;5093515;28;20035;-44
2024/01/10 09:58:27;;;;;;;12.23;7.13;;;13.30;80.90;;;;;;5093359;28;20020;-44
2024/01/10 10:00:53;;;;;;;11.23;7.15;;;13.40;80.90;;;;;;5093756;28;20069;-44
2024/01/10 10:03:19;;;;;;;13.00;7.40;;;13.40;80.70;;;;;;5093236;28;20032;-44
2024/01/10 10:05:45;;;;;;;11.85;7.60;;;13.50;80.60;;;;;;5093789;28;20485;-45
2024/01/10 10:08:14;;;;;;;11.85;7.38;;;13.60;81.30;;;;;;5092819;28;20108;-43
2024/01/10 10:10:42;;;;;;;10.85;7.10;;;13.60;80.50;;;;;;5093000;28;20043;-45
2024/01/10 10:13:12;;;;;;;10.85;7.38;;;13.70;80.40;;;;;;5093265;28;20067;-45
2024/01/10 10:15:38;;;;;;;10.40;7.15;;;13.70;80.30;;;;;;5092473;28;20027;-43
2024/01/10 10:18:04;;;;;;;13.60;7.90;;;13.80;80.10;;;;;;5092905;28;20035;-45
2024/01/10 10:20:36;;;;;;;12.77;7.10;;;13.90;80.10;;;;;;5092979;28;20390;-44
2024/01/10 10:23:15;;;;;;;11.10;7.68;;;13.90;79.90;;;;;;5092767;28;20031;-45
2024/01/10 10:25:45;;;;;;;11.63;7.43;;;14.00;79.80;;;;;;5093450;28;20050;-44
2024/01/10 10:28:11;;;;;;;11.38;7.43;;;14.10;79.60;;;;;;5092639;28;20115;-44
2024/01/10 10:30:36;;;;;;;9.82;7.10;;;14.10;79.40;;;;;;5092775;28;20282;-44
2024/01/10 10:33:03;;;;;;;9.70;6.55;;;14.20;79.30;;;;;;5092424;28;20090;-44
2024/01/10 10:35:29;;;;;;;9.68;6.93;;;14.30;79.40;;;;;;5092627;28;20024;-44
2024/01/10 10:37:55;;;;;;;10.13;6.82;;;14.30;79.20;;;;;;5093163;28;20071;-42
2024/01/10 10:40:21;;;;;;;12.27;7.55;;;14.40;79.10;;;;;;5092853;28;20059;-45
2024/01/10 10:42:56;;;;;;;11.57;7.57;;;14.40;79.00;;;;;;5092347;28;20031;-44
2024/01/10 10:45:26;;;;;;;10.93;7.30;;;14.50;78.90;;;;;;5092347;28;20060;-44
2024/01/10 10:48:01;;;;;;;11.30;6.90;;;14.50;78.80;;;;;;5092536;28;20486;-44
2024/01/10 10:50:35;;;;;;;12.07;7.57;;;14.60;78.70;;;;;;5091026;28;20036;-44
2024/01/10 10:53:03;;;;;;;10.70;7.40;;;14.60;78.60;;;;;;5092874;28;20032;-45
2024/01/10 10:55:29;;;;;;;12.18;7.68;;;14.60;78.50;;;;;;5092433;28;20763;-45
2024/01/10 10:57:55;;;;;;;12.23;7.80;;;14.70;79.20;;;;;;5091842;28;20478;-44
2024/01/10 11:00:26;;;;;;;11.13;7.22;;;14.80;78.40;;;;;;5092156;28;20668;-45
2024/01/10 11:02:53;;;;;;;10.57;6.97;;;14.80;78.20;;;;;;5092003;28;20039;-44
2024/01/10 11:05:20;;;;;;;12.30;7.00;;;14.80;78.20;;;;;;5092150;28;20031;-43
2024/01/10 11:07:46;;;;;;;10.00;6.80;;;14.90;78.10;;;;;;5092712;28;20028;-45
2024/01/10 11:10:24;;;;;;;9.23;6.57;;;14.90;77.90;;;;;;5091940;28;20397;-45
2024/01/10 11:13:09;;;;;;;11.52;7.50;;;15.00;77.80;;;;;;5091841;28;20024;-44
2024/01/10 11:16:05;;;;;;;10.75;7.03;;;15.00;77.60;;;;;;5093558;28;20049;-44
2024/01/10 11:18:42;;;;;;;11.90;7.35;;;15.10;77.50;;;;;;5091717;28;20569;-44
2024/01/10 11:21:34;;;;;;;11.45;8.18;;;15.20;77.50;;;;;;5092252;28;20428;-44
2024/01/10 11:24:01;;;;;;;11.00;7.65;;;15.20;77.30;;;;;;5091271;28;20040;-44
2024/01/10 11:26:27;;;;;;;10.65;7.00;;;15.30;77.20;;;;;;5092817;28;20060;-45
2024/01/10 11:28:53;;;;;;;11.38;7.72;;;15.30;76.90;;;;;;5091589;28;20052;-44
2024/01/10 11:31:30;;;;;;;10.73;7.75;;;15.40;76.80;;;;;;5093161;28;20130;-46
2024/01/10 11:34:00;;;;;;;11.43;7.32;;;15.40;77.50;;;;;;5092590;28;20015;-44
2024/01/10 11:36:27;;;;;;;14.93;10.40;;;15.50;76.60;;;;;;5091539;28;20039;-44
2024/01/10 11:38:56;;;;;;;18.15;12.00;;;15.50;75.10;;;;;;5092670;28;20016;-44
2024/01/10 11:41:35;;;;;;;18.05;12.05;;;15.50;73.20;;;;;;5091575;28;20016;-44
2024/01/10 11:46:43;;;;;;;18.05;11.30;;;15.50;72.80;;;;;;5091313;28;20028;-43
2024/01/10 11:49:14;;;;;;;18.17;11.88;;;15.50;72.90;;;;;;5091748;28;20377;-44
2024/01/10 11:51:42;;;;;;;17.10;11.73;;;15.60;73.00;;;;;;5091773;28;20020;-44
2024/01/10 11:54:08;;;;;;;16.75;11.68;;;15.60;73.20;;;;;;5092354;28;20035;-44
2024/01/10 11:56:41;;;;;;;16.95;11.30;;;15.60;73.30;;;;;;5077779;28;20036;-44
2024/01/10 11:59:10;;;;;;;15.93;11.37;;;15.70;73.40;;;;;;5092757;28;20035;-45
2024/01/10 12:01:40;;;;;;;17.88;11.38;;;15.70;73.40;;;;;;5091579;28;20027;-45
2024/01/10 12:04:07;;;;;;;15.63;11.25;;;15.70;73.40;;;;;;5092136;28;20027;-44
2024/01/10 12:06:39;;;;;;;18.33;11.32;;;15.70;73.40;;;;;;5091917;28;20023;-45
2024/01/10 12:09:14;;;;;;;16.63;11.18;;;15.80;73.50;;;;;;5091455;28;20027;-44
2024/01/10 12:11:41;;;;;;;16.65;11.57;;;15.70;73.40;;;;;;5091589;28;20020;-44
2024/01/10 12:14:08;;;;;;;16.98;11.50;;;15.80;74.30;;;;;;5091730;28;20544;-44
2024/01/10 12:16:34;;;;;;;17.23;10.85;;;15.80;73.50;;;;;;5091612;28;20398;-45
2024/01/10 12:18:59;;;;;;;14.52;10.52;;;15.80;73.50;;;;;;5091037;28;20028;-44
2024/01/10 12:21:25;;;;;;;15.65;10.35;;;15.90;73.50;;;;;;5090989;28;20027;-45
2024/01/10 12:23:54;;;;;;;15.73;10.98;;;15.90;73.50;;;;;;5090878;28;20127;-44
2024/01/10 12:26:19;;;;;;;15.75;11.10;;;15.90;73.50;;;;;;5091002;28;20028;-45
2024/01/10 12:28:58;;;;;;;14.10;10.18;;;15.90;73.40;;;;;;5091836;28;20024;-45
2024/01/10 12:31:27;;;;;;;14.50;9.95;;;15.90;73.30;;;;;;5091017;28;20028;-45
2024/01/10 12:33:55;;;;;;;15.18;10.30;;;16.00;73.40;;;;;;5090866;28;20077;-45
2024/01/10 12:36:21;;;;;;;14.93;10.55;;;16.00;73.30;;;;;;5091915;28;20024;-44
2024/01/10 12:38:47;;;;;;;14.35;9.57;;;16.00;73.30;;;;;;5093442;28;20202;-44
2024/01/10 12:41:15;;;;;;;14.57;9.80;;;16.00;73.30;;;;;;5095255;28;20385;-44
2024/01/10 12:43:40;;;;;;;15.80;9.82;;;16.00;73.30;;;;;;5094925;28;20020;-45